Time;durP1;ratioP1;P1;durP2;ratioP2;P2;SDS_P1;SDS_P2;PMS_P1;PMS_P2;Temp;Humidity;BMP_temperature;BMP_pressure;BME280_temperature;BME280_humidity;BME280_pressure;Samples;Min_cycle;Max_cycle;Signal;HPM_P1;HPM_P2
2022/02/15 05:01:32;;;;;;;5.35;4.03;;;7.00;99.90;;;;;;5407318;23;20308;-67
2022/02/15 05:03:58;;;;;;;4.38;3.97;;;7.00;99.90;;;;;;4925903;29;20262;-66
2022/02/15 05:06:25;;;;;;;4.30;3.80;;;7.00;99.90;;;;;;4930239;29;20202;-66
2022/02/15 05:08:52;;;;;;;6.20;5.20;;;7.00;99.90;;;;;;4933067;29;20276;-66
2022/02/15 05:11:18;;;;;;;4.10;3.65;;;7.00;99.90;;;;;;4932705;29;20663;-66
2022/02/15 05:13:45;;;;;;;5.32;4.43;;;7.00;99.90;;;;;;4933119;29;20605;-66
2022/02/15 05:16:12;;;;;;;4.20;3.90;;;7.00;99.90;;;;;;4932919;29;20293;-66
2022/02/15 05:18:40;;;;;;;3.88;3.58;;;7.00;99.90;;;;;;4949479;23;20244;-67
2022/02/15 05:21:06;;;;;;;3.50;3.30;;;7.00;99.90;;;;;;4958963;28;20206;-67
2022/02/15 05:23:33;;;;;;;3.70;3.55;;;7.00;99.90;;;;;;4962737;28;20275;-68
2022/02/15 05:26:00;;;;;;;8.95;6.00;;;7.00;99.90;;;;;;4972147;28;20196;-68
2022/02/15 05:28:27;;;;;;;5.13;4.63;;;7.00;99.90;;;;;;4966520;28;20255;-69
2022/02/15 05:30:54;;;;;;;4.18;3.88;;;7.00;99.90;;;;;;4942673;28;20289;-67
2022/02/15 05:33:20;;;;;;;4.07;3.70;;;7.00;99.90;;;;;;4942665;29;20584;-68
2022/02/15 05:35:48;;;;;;;4.25;3.92;;;7.00;99.90;;;;;;4948660;28;20673;-69
2022/02/15 05:38:15;;;;;;;6.78;4.05;;;7.00;99.90;;;;;;4951907;28;20268;-69
2022/02/15 05:40:42;;;;;;;5.45;3.58;;;7.00;99.90;;;;;;4936895;28;20277;-67
2022/02/15 05:43:13;;;;;;;4.30;4.10;;;6.90;99.90;;;;;;4934668;29;20217;-67
2022/02/15 05:45:40;;;;;;;5.95;4.80;;;6.90;99.90;;;;;;4933103;29;20206;-69
2022/02/15 05:48:06;;;;;;;4.50;4.07;;;6.90;99.90;;;;;;4934218;28;20249;-70
2022/02/15 05:50:52;;;;;;;3.75;3.45;;;6.80;99.90;;;;;;4951097;28;20263;-67
2022/02/15 05:53:21;;;;;;;3.70;3.40;;;6.80;99.90;;;;;;4948359;28;20268;-68
2022/02/15 05:55:51;;;;;;;3.22;3.03;;;6.80;99.90;;;;;;4949813;29;20205;-68
2022/02/15 05:58:18;;;;;;;2.80;2.60;;;6.80;99.90;;;;;;4953123;28;20230;-67
2022/02/15 06:00:45;;;;;;;3.22;3.03;;;6.80;99.90;;;;;;4941416;29;20201;-68
2022/02/15 06:05:55;;;;;;;3.25;3.05;;;6.80;99.90;;;;;;4954495;29;20207;-67
2022/02/15 06:08:24;;;;;;;3.10;2.80;;;6.80;99.90;;;;;;4955844;28;20250;-69
2022/02/15 06:10:51;;;;;;;3.28;2.97;;;6.80;99.90;;;;;;4944198;28;20210;-68
2022/02/15 06:13:18;;;;;;;4.03;3.15;;;6.80;99.90;;;;;;4942816;29;20584;-70
2022/02/15 06:15:45;;;;;;;3.10;3.00;;;6.80;99.90;;;;;;4955138;28;20201;-68
2022/02/15 06:18:12;;;;;;;3.40;3.10;;;6.80;99.90;;;;;;4952776;28;20233;-67
2022/02/15 06:20:39;;;;;;;2.80;2.60;;;6.80;99.90;;;;;;4949983;29;20213;-69
2022/02/15 06:23:06;;;;;;;3.20;2.90;;;6.90;99.90;;;;;;4944015;28;20214;-67
2022/02/15 06:25:34;;;;;;;3.28;2.92;;;6.80;99.90;;;;;;4950107;29;20214;-69
2022/02/15 06:28:01;;;;;;;3.05;2.55;;;6.80;99.90;;;;;;4945090;29;20663;-68
2022/02/15 06:30:28;;;;;;;5.40;3.63;;;6.90;99.90;;;;;;4936699;29;20249;-67
2022/02/15 06:32:55;;;;;;;2.88;2.38;;;6.80;99.90;;;;;;4951044;28;20666;-68
2022/02/15 06:35:22;;;;;;;3.65;3.35;;;6.90;99.90;;;;;;4947630;28;20202;-69
2022/02/15 06:37:51;;;;;;;3.55;3.15;;;6.90;99.90;;;;;;4944411;28;20286;-68
2022/02/15 06:40:19;;;;;;;4.93;2.75;;;6.90;99.90;;;;;;4935991;29;20312;-68
2022/02/15 06:42:48;;;;;;;4.03;3.58;;;6.90;99.90;;;;;;4937266;29;20292;-67
2022/02/15 06:45:15;;;;;;;2.53;2.40;;;6.90;99.90;;;;;;4936560;29;20613;-71
2022/02/15 06:47:42;;;;;;;3.15;2.47;;;6.90;99.90;;;;;;4944645;29;20202;-68
2022/02/15 06:50:10;;;;;;;4.43;2.90;;;6.90;99.90;;;;;;4936876;29;20234;-69
2022/02/15 06:52:36;;;;;;;4.50;3.22;;;6.90;99.90;;;;;;4934659;29;20268;-68
2022/02/15 06:55:04;;;;;;;3.03;2.80;;;6.90;99.90;;;;;;4945418;29;20206;-68
2022/02/15 06:57:30;;;;;;;3.58;3.28;;;6.90;99.90;;;;;;4945441;29;20550;-68
2022/02/15 06:59:58;;;;;;;3.42;3.22;;;7.00;99.90;;;;;;4944381;28;20261;-70
2022/02/15 07:02:25;;;;;;;3.60;3.30;;;7.00;99.90;;;;;;4951487;29;20568;-69
2022/02/15 07:04:53;;;;;;;3.72;3.47;;;7.00;99.90;;;;;;4947913;28;20903;-67
2022/02/15 07:07:19;;;;;;;5.65;3.63;;;7.00;99.90;;;;;;4941016;29;20230;-68
2022/02/15 07:09:46;;;;;;;4.13;3.30;;;7.10;99.90;;;;;;4935875;29;20265;-67
2022/02/15 07:12:13;;;;;;;5.20;3.47;;;7.00;99.90;;;;;;4938981;29;20222;-67
2022/02/15 07:14:39;;;;;;;3.28;3.05;;;7.00;99.90;;;;;;4947670;29;20556;-70
2022/02/15 07:17:08;;;;;;;3.38;3.13;;;7.10;99.90;;;;;;4952778;28;20213;-68
2022/02/15 07:19:35;;;;;;;3.33;3.03;;;7.10;99.90;;;;;;4936334;29;20240;-73
2022/02/15 07:22:02;;;;;;;3.67;3.30;;;7.10;99.90;;;;;;4934723;29;20198;-67
2022/02/15 07:24:28;;;;;;;4.32;3.92;;;7.10;99.90;;;;;;4940658;29;20205;-69
2022/02/15 07:26:55;;;;;;;4.00;3.60;;;7.10;99.90;;;;;;4953418;28;20207;-69
2022/02/15 07:29:22;;;;;;;5.15;3.60;;;7.10;99.90;;;;;;4953762;28;20252;-71
2022/02/15 07:31:50;;;;;;;4.72;3.30;;;7.10;99.90;;;;;;4953008;28;20252;-68
2022/02/15 07:34:18;;;;;;;4.60;4.18;;;7.10;99.90;;;;;;4947742;29;20205;-66
2022/02/15 07:36:45;;;;;;;4.53;4.15;;;7.10;99.90;;;;;;4935343;29;20202;-68
2022/02/15 07:39:12;;;;;;;4.22;3.85;;;7.10;99.90;;;;;;4949909;28;20252;-71
2022/02/15 07:41:39;;;;;;;5.25;4.30;;;7.10;99.90;;;;;;4935624;29;20214;-69
2022/02/15 07:44:05;;;;;;;5.75;4.15;;;7.10;99.90;;;;;;4937017;29;20673;-69
2022/02/15 07:46:32;;;;;;;4.70;4.40;;;7.10;99.90;;;;;;4946583;29;20217;-71
2022/02/15 07:48:59;;;;;;;4.38;4.07;;;7.20;99.90;;;;;;4942966;28;20218;-68
2022/02/15 07:51:27;;;;;;;5.53;4.00;;;7.30;99.90;;;;;;4951805;29;20205;-68
2022/02/15 07:53:54;;;;;;;4.93;4.47;;;7.30;99.90;;;;;;4953582;28;20246;-68
2022/02/15 07:56:20;;;;;;;4.57;4.10;;;7.30;99.90;;;;;;4950376;29;20646;-69
2022/02/15 07:58:47;;;;;;;4.45;4.00;;;7.30;99.90;;;;;;4953353;28;20737;-68
2022/02/15 08:01:14;;;;;;;4.65;4.20;;;7.30;99.90;;;;;;4943932;28;20627;-68
2022/02/15 08:03:41;;;;;;;5.70;4.57;;;7.40;99.90;;;;;;4952686;28;20209;-72
2022/02/15 08:06:08;;;;;;;6.03;4.68;;;7.40;99.90;;;;;;4939521;28;20213;-68
2022/02/15 08:08:36;;;;;;;7.45;5.13;;;7.50;99.90;;;;;;4934976;28;20595;-68
2022/02/15 08:11:02;;;;;;;6.10;5.07;;;7.50;99.90;;;;;;4935234;29;20198;-68
2022/02/15 08:13:34;;;;;;;4.85;4.45;;;7.50;99.90;;;;;;4935385;29;20214;-69
2022/02/15 08:16:02;;;;;;;5.43;4.50;;;7.60;99.90;;;;;;4936018;29;20657;-68
2022/02/15 08:18:28;;;;;;;6.60;5.30;;;7.60;99.90;;;;;;4952565;28;20710;-69
2022/02/15 08:20:55;;;;;;;5.00;4.60;;;7.70;99.90;;;;;;4945401;28;20269;-70
2022/02/15 08:23:22;;;;;;;5.93;4.32;;;7.80;99.90;;;;;;4943232;29;20288;-67
2022/02/15 08:25:52;;;;;;;5.78;5.13;;;7.90;99.90;;;;;;4941957;28;20317;-68
2022/02/15 08:28:19;;;;;;;7.00;6.20;;;7.90;99.90;;;;;;4934301;29;20399;-67
2022/02/15 08:30:46;;;;;;;5.20;4.70;;;7.90;99.90;;;;;;4933783;29;20214;-69
2022/02/15 08:33:12;;;;;;;4.57;4.18;;;8.00;99.90;;;;;;4933894;29;20505;-67
2022/02/15 08:35:39;;;;;;;7.05;5.13;;;8.00;99.90;;;;;;4943955;29;20233;-70
2022/02/15 08:38:06;;;;;;;5.45;4.80;;;8.00;99.90;;;;;;4938399;28;20284;-69
2022/02/15 08:40:33;;;;;;;8.82;5.47;;;7.90;99.90;;;;;;4933714;29;20249;-67
2022/02/15 08:43:01;;;;;;;6.18;5.18;;;7.90;99.90;;;;;;4946392;29;20272;-69
2022/02/15 08:45:28;;;;;;;6.10;5.47;;;7.90;99.90;;;;;;4933914;29;20202;-68
2022/02/15 08:47:55;;;;;;;9.00;6.88;;;7.90;99.90;;;;;;4935474;29;20277;-67
2022/02/15 08:50:22;;;;;;;6.10;5.50;;;7.90;99.90;;;;;;4933230;29;20225;-73
2022/02/15 08:52:49;;;;;;;6.55;4.95;;;7.90;99.90;;;;;;4934779;29;20206;-69
2022/02/15 08:55:16;;;;;;;6.10;5.32;;;8.00;99.90;;;;;;4933718;29;20244;-71
2022/02/15 08:57:43;;;;;;;6.53;5.63;;;8.00;99.90;;;;;;4938225;29;20625;-68
2022/02/15 09:00:14;;;;;;;8.98;7.28;;;8.00;99.90;;;;;;4940074;28;20230;-68
2022/02/15 09:02:41;;;;;;;5.90;5.30;;;8.00;99.90;;;;;;4933431;29;20218;-68
2022/02/15 09:05:09;;;;;;;5.70;5.20;;;8.00;99.90;;;;;;4948605;29;20355;-68
2022/02/15 09:07:35;;;;;;;5.22;4.72;;;8.00;99.90;;;;;;4951211;28;20209;-67
2022/02/15 09:10:02;;;;;;;8.88;5.65;;;8.00;99.90;;;;;;4952461;28;20590;-70
2022/02/15 09:12:29;;;;;;;6.55;5.43;;;8.10;99.90;;;;;;4940847;29;20260;-67
2022/02/15 09:14:56;;;;;;;6.57;5.75;;;8.10;99.90;;;;;;4934159;29;20206;-67
2022/02/15 09:17:24;;;;;;;6.10;5.53;;;8.10;99.90;;;;;;4940840;29;20206;-70
2022/02/15 09:19:50;;;;;;;5.15;4.72;;;8.20;99.90;;;;;;4932555;29;20707;-71
2022/02/15 09:22:18;;;;;;;5.60;4.82;;;8.20;99.90;;;;;;4947597;29;20205;-69
2022/02/15 09:24:45;;;;;;;6.15;5.53;;;8.20;99.90;;;;;;4946133;28;20220;-67
2022/02/15 09:27:11;;;;;;;8.27;5.55;;;8.20;99.90;;;;;;4943298;29;20221;-67
2022/02/15 09:29:38;;;;;;;5.65;5.00;;;8.20;99.90;;;;;;4935833;29;20261;-66
2022/02/15 09:32:06;;;;;;;5.88;5.05;;;8.20;99.90;;;;;;4951090;29;20689;-68
2022/02/15 09:34:34;;;;;;;5.88;4.70;;;8.10;99.90;;;;;;4955138;28;20259;-66
2022/02/15 09:37:01;;;;;;;7.40;5.32;;;8.10;99.90;;;;;;4952258;29;20217;-67
2022/02/15 09:39:28;;;;;;;6.05;5.18;;;8.10;99.90;;;;;;4949422;28;20240;-66
2022/02/15 09:41:56;;;;;;;5.18;4.57;;;8.10;99.90;;;;;;4950064;29;20303;-69
2022/02/15 09:44:22;;;;;;;5.47;4.97;;;8.00;99.90;;;;;;4936723;29;20202;-68
2022/02/15 09:46:49;;;;;;;6.38;5.70;;;8.10;99.90;;;;;;4938655;29;20205;-67
2022/02/15 09:52:06;;;;;;;6.38;5.55;;;8.10;99.90;;;;;;4951587;29;20224;-68
2022/02/15 09:54:33;;;;;;;5.60;5.10;;;8.10;99.90;;;;;;4941669;29;20256;-68
2022/02/15 09:56:59;;;;;;;4.93;4.45;;;8.10;99.90;;;;;;4945665;28;20682;-69
2022/02/15 09:59:26;;;;;;;7.65;4.57;;;8.30;99.90;;;;;;4951563;29;20644;-69
2022/02/15 10:01:53;;;;;;;4.75;4.28;;;8.40;99.90;;;;;;4945810;29;20216;-68
2022/02/15 10:04:32;;;;;;;5.32;3.97;;;8.60;99.90;;;;;;4953523;29;20520;-68
2022/02/15 10:06:59;;;;;;;6.50;3.90;;;8.60;99.90;;;;;;4946548;28;20205;-70
2022/02/15 10:09:28;;;;;;;4.78;4.45;;;8.60;99.90;;;;;;4939054;29;20275;-68
2022/02/15 10:12:03;;;;;;;3.75;3.55;;;8.60;99.90;;;;;;4938098;29;20217;-68
2022/02/15 10:14:30;;;;;;;5.88;3.80;;;8.70;99.90;;;;;;4949241;29;20300;-68
2022/02/15 10:16:58;;;;;;;3.65;3.28;;;8.70;99.90;;;;;;4941179;28;20257;-68
2022/02/15 10:19:25;;;;;;;3.75;3.45;;;8.80;99.90;;;;;;4944971;29;20244;-70
2022/02/15 10:21:55;;;;;;;3.95;3.65;;;8.90;99.90;;;;;;4946111;28;20257;-70
2022/02/15 10:24:22;;;;;;;4.70;3.63;;;9.00;99.90;;;;;;4939626;28;20202;-67
2022/02/15 10:27:00;;;;;;;4.45;3.65;;;9.00;99.90;;;;;;4943928;28;20222;-68
2022/02/15 10:29:28;;;;;;;4.60;4.18;;;9.00;99.90;;;;;;4941524;29;20225;-69
2022/02/15 10:31:56;;;;;;;4.32;3.65;;;9.00;99.90;;;;;;4950225;28;20239;-68
2022/02/15 10:34:23;;;;;;;3.28;3.08;;;9.00;99.90;;;;;;4952354;29;20209;-67
2022/02/15 10:37:00;;;;;;;7.78;3.70;;;9.10;99.90;;;;;;4953814;29;20204;-66
2022/02/15 10:39:38;;;;;;;5.93;3.63;;;9.20;99.90;;;;;;4953550;28;20284;-69
2022/02/15 10:42:08;;;;;;;3.80;3.38;;;9.20;99.90;;;;;;4952139;29;20265;-69
2022/02/15 10:44:47;;;;;;;3.70;3.47;;;9.20;99.90;;;;;;4944108;29;20213;-67
2022/02/15 10:47:13;;;;;;;4.20;3.67;;;9.20;99.90;;;;;;4935226;29;20359;-67
2022/02/15 10:49:42;;;;;;;4.43;4.03;;;9.20;99.90;;;;;;4940559;29;20339;-70
2022/02/15 10:52:10;;;;;;;4.13;3.70;;;9.10;99.90;;;;;;4933815;29;20224;-69
2022/02/15 10:54:37;;;;;;;4.00;3.60;;;9.20;99.90;;;;;;4935510;29;20733;-70
2022/02/15 10:57:10;;;;;;;5.30;4.80;;;9.30;99.90;;;;;;4951519;28;20315;-66
2022/02/15 10:59:39;;;;;;;4.38;3.97;;;9.40;99.90;;;;;;4952592;28;20229;-66
2022/02/15 11:02:07;;;;;;;6.22;5.68;;;9.40;99.90;;;;;;4953481;28;20268;-66
2022/02/15 11:04:35;;;;;;;7.75;4.15;;;9.50;99.90;;;;;;4936313;28;20210;-68
2022/02/15 11:07:06;;;;;;;6.43;4.30;;;9.60;99.90;;;;;;4934066;29;20613;-67
2022/02/15 11:09:40;;;;;;;6.15;4.90;;;9.70;99.90;;;;;;4934360;29;20244;-70
2022/02/15 11:12:17;;;;;;;4.88;4.47;;;9.70;99.90;;;;;;4934283;29;20256;-67
2022/02/15 11:14:51;;;;;;;5.30;4.80;;;9.80;99.90;;;;;;4946286;29;20212;-70
2022/02/15 11:17:18;;;;;;;5.30;4.90;;;9.80;99.90;;;;;;4953571;28;20567;-69
2022/02/15 11:19:45;;;;;;;7.15;5.30;;;9.90;99.90;;;;;;4952387;28;20235;-68
2022/02/15 11:22:18;;;;;;;5.22;4.82;;;10.00;99.90;;;;;;4952690;28;20212;-68
2022/02/15 11:24:44;;;;;;;6.80;5.15;;;10.00;99.90;;;;;;4952622;28;20209;-67
2022/02/15 11:27:18;;;;;;;4.32;3.90;;;9.90;99.90;;;;;;4953077;28;20220;-70
2022/02/15 11:29:51;;;;;;;5.10;4.70;;;9.90;99.90;;;;;;4953090;28;20232;-67
2022/02/15 11:32:29;;;;;;;4.90;4.45;;;9.90;99.90;;;;;;4952860;28;20205;-67
2022/02/15 11:34:56;;;;;;;8.45;4.93;;;9.80;99.90;;;;;;4939689;29;20547;-69
2022/02/15 11:37:25;;;;;;;5.70;5.22;;;9.80;99.90;;;;;;4951968;28;20205;-67
2022/02/15 11:40:00;;;;;;;5.18;4.78;;;9.80;99.90;;;;;;4948352;28;20360;-68
2022/02/15 11:42:28;;;;;;;5.50;5.00;;;9.80;99.90;;;;;;4933660;29;20241;-67
2022/02/15 11:44:55;;;;;;;7.10;5.38;;;9.70;99.90;;;;;;4934056;29;20304;-66
2022/02/15 11:47:28;;;;;;;5.43;5.00;;;9.70;99.90;;;;;;4940911;29;20693;-69
2022/02/15 11:49:57;;;;;;;6.32;5.72;;;9.60;99.90;;;;;;4938064;29;20843;-67
2022/02/15 11:52:25;;;;;;;7.20;5.70;;;9.50;99.90;;;;;;4951139;28;20217;-68
2022/02/15 11:54:54;;;;;;;6.65;5.95;;;9.50;99.90;;;;;;4937514;29;20233;-70
2022/02/15 11:57:22;;;;;;;11.32;7.22;;;9.30;99.90;;;;;;4939121;29;20304;-68
2022/02/15 11:59:53;;;;;;;9.18;8.27;;;9.20;99.90;;;;;;4951323;28;20233;-70
2022/02/15 12:02:20;;;;;;;6.25;5.68;;;9.10;99.90;;;;;;4935214;28;20206;-68
2022/02/15 12:04:52;;;;;;;5.53;4.88;;;8.90;99.90;;;;;;4941609;29;20284;-68
2022/02/15 12:07:24;;;;;;;4.60;4.25;;;8.50;99.90;;;;;;4951018;28;20206;-67
2022/02/15 12:09:54;;;;;;;5.47;4.88;;;8.40;99.90;;;;;;4933099;29;20238;-68
2022/02/15 12:12:20;;;;;;;5.97;4.93;;;8.40;99.90;;;;;;4946435;29;20205;-66
2022/02/15 12:14:56;;;;;;;6.20;5.00;;;8.40;99.90;;;;;;4933965;28;20217;-67
2022/02/15 12:17:24;;;;;;;6.10;5.53;;;8.40;99.90;;;;;;4945438;29;20213;-66
2022/02/15 12:19:55;;;;;;;6.65;5.45;;;8.50;99.90;;;;;;4938265;28;20229;-67
2022/02/15 12:22:22;;;;;;;8.73;6.65;;;8.50;99.90;;;;;;4932099;29;20241;-68
2022/02/15 12:24:52;;;;;;;10.80;8.30;;;8.60;99.90;;;;;;4934220;29;20213;-69
2022/02/15 12:27:19;;;;;;;10.00;7.85;;;8.60;99.90;;;;;;4939286;29;20197;-68
2022/02/15 12:29:49;;;;;;;10.25;8.45;;;8.60;99.90;;;;;;4951573;29;20237;-69
2022/02/15 12:32:23;;;;;;;10.40;8.15;;;8.60;99.90;;;;;;4947173;29;20227;-67
2022/02/15 12:34:50;;;;;;;12.23;8.20;;;8.70;99.90;;;;;;4944254;28;20268;-69
2022/02/15 12:37:21;;;;;;;10.75;7.93;;;8.70;99.90;;;;;;4932187;29;20291;-68
2022/02/15 12:39:52;;;;;;;11.93;8.90;;;8.70;99.90;;;;;;4949953;29;20232;-69
2022/02/15 12:42:20;;;;;;;11.45;8.15;;;8.80;99.90;;;;;;4943934;28;20818;-68
2022/02/15 12:44:57;;;;;;;9.88;7.97;;;8.80;99.90;;;;;;4933608;29;20206;-66
2022/02/15 12:47:26;;;;;;;13.55;8.90;;;8.80;99.90;;;;;;4947533;29;20215;-67
2022/02/15 12:49:53;;;;;;;15.50;10.65;;;8.90;99.90;;;;;;4934888;28;20281;-66
2022/02/15 12:52:21;;;;;;;16.20;12.00;;;8.90;99.90;;;;;;4943830;29;20276;-68
2022/02/15 12:54:52;;;;;;;11.85;8.65;;;9.00;99.90;;;;;;4947817;29;20733;-68
2022/02/15 12:57:21;;;;;;;11.93;9.20;;;9.00;99.90;;;;;;4949736;28;20580;-67
2022/02/15 12:59:51;;;;;;;10.43;8.90;;;9.00;99.90;;;;;;4949112;28;20671;-68
2022/02/15 13:02:18;;;;;;;11.32;9.40;;;9.10;99.90;;;;;;4952758;28;20578;-70
2022/02/15 13:04:48;;;;;;;9.35;8.43;;;9.20;99.90;;;;;;4951006;28;20659;-68
2022/02/15 13:07:15;;;;;;;8.10;7.20;;;9.20;99.90;;;;;;4942484;28;20202;-67
2022/02/15 13:09:47;;;;;;;15.48;10.82;;;9.30;99.90;;;;;;4940215;29;20776;-69
2022/02/15 13:12:18;;;;;;;14.88;9.65;;;9.30;99.90;;;;;;4937762;28;20265;-69
2022/02/15 13:14:48;;;;;;;10.32;8.32;;;9.40;99.90;;;;;;4942539;29;20586;-67
2022/02/15 13:17:15;;;;;;;8.43;7.20;;;9.40;99.90;;;;;;4951061;28;20666;-68
2022/02/15 13:19:42;;;;;;;9.20;8.30;;;9.40;99.90;;;;;;4937466;29;20240;-69
2022/02/15 13:22:12;;;;;;;9.07;8.27;;;9.40;99.90;;;;;;4943071;28;20224;-70
2022/02/15 13:24:50;;;;;;;8.25;7.30;;;9.50;99.90;;;;;;4946987;29;20242;-68
2022/02/15 13:27:17;;;;;;;10.02;8.27;;;9.50;99.90;;;;;;4945124;28;20202;-69
2022/02/15 13:29:43;;;;;;;7.97;7.22;;;9.50;99.90;;;;;;4932579;29;20229;-69
2022/02/15 13:32:11;;;;;;;9.85;8.18;;;9.40;99.90;;;;;;4949974;29;20205;-67
2022/02/15 13:34:39;;;;;;;7.97;6.93;;;9.30;99.90;;;;;;4940637;28;20209;-68
2022/02/15 13:37:07;;;;;;;11.75;7.85;;;9.30;99.90;;;;;;4936309;28;20245;-69
2022/02/15 13:39:36;;;;;;;7.45;6.00;;;9.30;99.90;;;;;;4932528;29;20257;-69
2022/02/15 13:42:04;;;;;;;12.05;8.48;;;9.30;99.90;;;;;;4932297;29;20217;-68
2022/02/15 13:44:31;;;;;;;8.88;7.53;;;9.30;99.90;;;;;;4936240;29;20214;-70
2022/02/15 13:46:58;;;;;;;8.25;7.45;;;9.20;99.90;;;;;;4931791;29;20265;-69
2022/02/15 13:49:25;;;;;;;8.32;7.57;;;9.30;99.90;;;;;;4950362;28;20300;-69
2022/02/15 13:51:53;;;;;;;7.68;6.85;;;9.30;99.90;;;;;;4945818;28;20205;-69
2022/02/15 13:54:20;;;;;;;7.38;6.38;;;9.40;99.90;;;;;;4944758;29;20210;-71
2022/02/15 13:56:48;;;;;;;7.10;6.50;;;9.40;99.90;;;;;;4939886;28;20315;-68
2022/02/15 13:59:14;;;;;;;8.32;5.68;;;9.40;99.90;;;;;;4935523;28;20285;-67
2022/02/15 14:01:46;;;;;;;9.02;6.68;;;9.30;99.90;;;;;;4952910;29;20287;-68
2022/02/15 14:04:13;;;;;;;7.28;6.57;;;9.30;99.90;;;;;;4942827;29;20292;-67
2022/02/15 14:06:39;;;;;;;7.43;6.60;;;9.30;99.90;;;;;;4940762;29;20202;-70
2022/02/15 14:09:06;;;;;;;6.40;5.80;;;9.30;99.90;;;;;;4932565;28;20234;-68
2022/02/15 14:11:33;;;;;;;5.70;5.20;;;9.30;99.90;;;;;;4939991;29;20206;-68
2022/02/15 14:14:01;;;;;;;9.20;6.28;;;9.30;99.90;;;;;;4944799;28;20213;-68
2022/02/15 14:16:27;;;;;;;7.55;6.25;;;9.30;99.90;;;;;;4942094;29;20206;-68
2022/02/15 14:18:54;;;;;;;6.07;5.57;;;9.30;99.90;;;;;;4946722;28;20308;-69
2022/02/15 14:21:21;;;;;;;5.95;5.15;;;9.30;99.90;;;;;;4948351;28;20229;-68
2022/02/15 14:23:48;;;;;;;7.30;5.72;;;9.40;99.90;;;;;;4954517;29;20205;-68
2022/02/15 14:26:14;;;;;;;6.63;6.00;;;9.50;99.90;;;;;;4950816;28;20201;-71
2022/02/15 14:28:42;;;;;;;5.95;5.45;;;9.40;99.90;;;;;;4944170;29;20233;-69
2022/02/15 14:31:10;;;;;;;6.50;5.90;;;9.50;99.90;;;;;;4954390;29;20633;-70
2022/02/15 14:33:37;;;;;;;6.38;5.72;;;9.50;99.90;;;;;;4952093;29;20296;-68
2022/02/15 14:36:05;;;;;;;9.07;6.15;;;9.50;99.90;;;;;;4947101;29;20296;-66
2022/02/15 14:38:31;;;;;;;5.90;5.40;;;9.60;99.90;;;;;;4954099;28;20233;-68
2022/02/15 14:40:58;;;;;;;7.25;5.53;;;9.50;99.90;;;;;;4954195;28;20233;-67
2022/02/15 14:43:25;;;;;;;6.65;6.05;;;9.50;99.90;;;;;;4944163;28;20206;-69
2022/02/15 14:45:51;;;;;;;9.90;7.13;;;9.40;99.90;;;;;;4946807;28;20202;-68
2022/02/15 14:48:22;;;;;;;12.23;6.47;;;9.40;99.90;;;;;;4940474;28;20587;-68
2022/02/15 14:50:49;;;;;;;8.82;7.00;;;9.30;99.90;;;;;;4943199;29;20245;-68
2022/02/15 14:53:16;;;;;;;8.38;6.20;;;9.30;99.90;;;;;;4946382;29;20206;-68
2022/02/15 14:55:43;;;;;;;12.55;6.80;;;9.30;99.90;;;;;;4937841;29;20341;-67
2022/02/15 14:58:10;;;;;;;11.68;7.03;;;9.30;99.90;;;;;;4947301;29;20616;-68
2022/02/15 15:00:37;;;;;;;8.98;7.60;;;9.40;99.90;;;;;;4942825;29;20226;-67
2022/02/15 15:03:04;;;;;;;8.55;7.43;;;9.30;99.90;;;;;;4939483;29;20213;-67
2022/02/15 15:05:32;;;;;;;7.95;7.15;;;9.30;99.90;;;;;;4945851;29;20205;-69
2022/02/15 15:07:59;;;;;;;15.23;8.00;;;9.30;99.90;;;;;;4940693;28;20671;-70
2022/02/15 15:10:27;;;;;;;11.68;9.40;;;9.30;99.90;;;;;;4949245;29;20585;-69
2022/02/15 15:12:55;;;;;;;12.35;9.75;;;9.30;99.90;;;;;;4947057;28;20635;-69
2022/02/15 15:15:21;;;;;;;11.88;9.38;;;9.20;99.90;;;;;;4934619;29;20213;-72
2022/02/15 15:17:48;;;;;;;11.15;9.68;;;9.10;99.90;;;;;;4940517;28;20210;-69
2022/02/15 15:20:15;;;;;;;13.95;9.68;;;9.10;99.90;;;;;;4945215;28;20327;-68
2022/02/15 15:22:43;;;;;;;12.63;9.98;;;9.10;99.90;;;;;;4945800;28;20233;-72
2022/02/15 15:25:10;;;;;;;13.60;10.40;;;9.10;99.90;;;;;;4951505;28;20622;-69
2022/02/15 15:27:38;;;;;;;14.00;10.40;;;9.10;99.90;;;;;;4940482;28;20201;-69
2022/02/15 15:30:06;;;;;;;11.25;9.65;;;9.00;99.90;;;;;;4947664;28;20856;-69
2022/02/15 15:32:34;;;;;;;11.85;9.60;;;8.90;99.90;;;;;;4937789;29;20207;-67
2022/02/15 15:35:01;;;;;;;12.88;9.30;;;8.80;99.90;;;;;;4927787;29;20840;-67
2022/02/15 15:37:32;;;;;;;11.65;9.57;;;8.80;99.90;;;;;;4948350;29;20626;-70
2022/02/15 15:40:00;;;;;;;15.55;9.00;;;8.70;99.90;;;;;;4936097;28;20255;-69
2022/02/15 15:42:26;;;;;;;17.60;10.55;;;8.70;99.90;;;;;;4932610;29;20229;-68
2022/02/15 15:44:53;;;;;;;11.13;9.20;;;8.70;99.90;;;;;;4948311;28;20202;-67
2022/02/15 15:47:20;;;;;;;15.73;9.35;;;8.70;99.90;;;;;;4937733;28;20205;-68
2022/02/15 15:49:48;;;;;;;11.95;9.20;;;8.60;99.90;;;;;;4943017;29;20312;-68
2022/02/15 15:52:15;;;;;;;13.57;9.85;;;8.60;99.90;;;;;;4937418;29;20265;-68
2022/02/15 15:54:42;;;;;;;17.17;9.85;;;8.60;99.90;;;;;;4943495;29;20284;-68
2022/02/15 15:57:10;;;;;;;14.23;10.15;;;8.50;99.90;;;;;;4935424;29;20205;-68
2022/02/15 15:59:37;;;;;;;15.50;9.57;;;8.40;99.90;;;;;;4943819;28;20237;-70
2022/02/15 16:02:04;;;;;;;10.88;9.80;;;8.40;99.90;;;;;;4946302;29;20236;-69
2022/02/15 16:04:31;;;;;;;14.05;9.50;;;8.40;99.90;;;;;;4949335;29;20264;-71
2022/02/15 16:06:59;;;;;;;13.45;9.68;;;8.30;99.90;;;;;;4939062;28;20213;-69
2022/02/15 16:09:26;;;;;;;15.38;10.10;;;8.20;99.90;;;;;;4930605;29;20559;-68
2022/02/15 16:11:54;;;;;;;14.82;10.25;;;8.20;99.90;;;;;;4940556;29;20291;-68
2022/02/15 16:14:22;;;;;;;13.98;10.18;;;8.20;99.90;;;;;;4937482;29;20206;-68
2022/02/15 16:16:49;;;;;;;16.98;11.38;;;8.10;99.90;;;;;;4948743;28;20240;-68
2022/02/15 16:19:16;;;;;;;14.00;9.68;;;8.10;99.90;;;;;;4948003;28;20240;-68
2022/02/15 16:21:43;;;;;;;15.50;11.50;;;8.00;99.90;;;;;;4948084;29;20239;-68
2022/02/15 16:24:11;;;;;;;14.65;10.80;;;8.00;99.90;;;;;;4942056;29;20216;-68
2022/02/15 16:26:38;;;;;;;12.43;10.15;;;8.00;99.90;;;;;;4947843;29;20666;-68
2022/02/15 16:29:05;;;;;;;12.10;9.20;;;7.90;99.90;;;;;;4947888;28;20225;-68
2022/02/15 16:31:50;;;;;;;15.10;8.95;;;7.90;99.90;;;;;;4932841;28;20261;-68
2022/02/15 16:34:17;;;;;;;11.25;8.90;;;7.90;99.90;;;;;;4942611;29;20218;-68
2022/02/15 16:36:44;;;;;;;12.23;9.50;;;7.80;99.90;;;;;;4947530;28;20211;-68
2022/02/15 16:39:10;;;;;;;10.05;7.75;;;7.80;99.90;;;;;;4944784;29;20220;-68
2022/02/15 16:41:40;;;;;;;12.90;8.40;;;7.80;99.90;;;;;;4931154;28;20940;-69
2022/02/15 16:44:08;;;;;;;11.88;8.60;;;7.80;99.90;;;;;;4930455;29;20213;-68
2022/02/15 16:46:34;;;;;;;12.15;9.18;;;7.80;99.90;;;;;;4936739;29;20232;-69
2022/02/15 16:49:03;;;;;;;12.65;9.60;;;7.70;99.90;;;;;;4936641;28;20241;-69
2022/02/15 16:51:30;;;;;;;15.43;10.45;;;7.70;99.90;;;;;;4939931;28;20288;-69
2022/02/15 16:53:57;;;;;;;15.52;9.70;;;7.70;99.90;;;;;;4936336;29;20241;-68
2022/02/15 16:56:24;;;;;;;13.38;10.40;;;7.60;99.90;;;;;;4937780;28;20217;-69
2022/02/15 16:58:52;;;;;;;19.13;10.15;;;7.60;99.90;;;;;;4950989;28;20220;-69
2022/02/15 17:01:19;;;;;;;12.82;10.93;;;7.60;99.90;;;;;;4949669;28;20671;-67
2022/02/15 17:03:45;;;;;;;12.63;9.00;;;7.50;99.90;;;;;;4954504;28;20212;-68
2022/02/15 17:06:15;;;;;;;12.65;9.50;;;7.50;99.90;;;;;;4955902;28;20204;-68
2022/02/15 17:08:42;;;;;;;13.20;9.95;;;7.50;99.90;;;;;;4947820;28;20752;-69
2022/02/15 17:11:08;;;;;;;11.95;10.18;;;7.50;99.90;;;;;;4942916;28;20211;-69
2022/02/15 17:13:35;;;;;;;14.93;9.82;;;7.40;99.90;;;;;;4944353;28;20212;-69
2022/02/15 17:16:05;;;;;;;10.73;9.63;;;7.40;99.90;;;;;;4952181;28;20201;-69
2022/02/15 17:18:32;;;;;;;15.25;10.32;;;7.40;99.90;;;;;;4940225;29;20261;-69
2022/02/15 17:20:59;;;;;;;15.60;10.05;;;7.40;99.90;;;;;;4943162;28;20194;-69
2022/02/15 17:23:27;;;;;;;14.75;10.52;;;7.40;99.90;;;;;;4931651;29;20662;-69
2022/02/15 17:25:54;;;;;;;14.63;9.88;;;7.30;99.90;;;;;;4934106;29;20198;-69
2022/02/15 17:28:21;;;;;;;14.27;10.93;;;7.30;99.90;;;;;;4931829;29;20574;-69
2022/02/15 17:30:47;;;;;;;16.20;11.63;;;7.30;99.90;;;;;;4948671;28;20209;-69
2022/02/15 17:33:15;;;;;;;13.27;10.73;;;7.30;99.90;;;;;;4950472;28;20308;-69
2022/02/15 17:35:42;;;;;;;17.90;10.43;;;7.40;99.90;;;;;;4936925;29;20216;-69
2022/02/15 17:38:08;;;;;;;17.67;12.25;;;7.30;99.90;;;;;;4938376;28;20205;-69
2022/02/15 17:40:37;;;;;;;18.60;12.13;;;7.40;99.90;;;;;;4948815;29;20292;-69
2022/02/15 17:43:05;;;;;;;16.77;12.05;;;7.30;99.90;;;;;;4949883;28;20284;-69
2022/02/15 17:45:31;;;;;;;20.02;13.05;;;7.30;99.90;;;;;;4947640;28;20292;-69
2022/02/15 17:47:58;;;;;;;19.77;11.90;;;7.30;99.90;;;;;;4938563;29;20277;-69
2022/02/15 17:50:25;;;;;;;14.65;11.20;;;7.30;99.90;;;;;;4932990;29;20276;-69
2022/02/15 17:52:52;;;;;;;16.83;12.45;;;7.30;99.90;;;;;;4945415;29;20209;-69
2022/02/15 17:55:18;;;;;;;18.13;12.05;;;7.30;99.90;;;;;;4937474;28;20213;-69
2022/02/15 17:57:47;;;;;;;17.48;12.82;;;7.30;99.90;;;;;;4936619;29;20205;-69
2022/02/15 18:00:15;;;;;;;14.90;11.63;;;7.30;99.90;;;;;;4943414;29;20788;-69
2022/02/15 18:02:43;;;;;;;16.08;10.93;;;7.30;99.90;;;;;;4943797;29;20229;-69